Main page
METAR-TAF:

METAR-TAF

Airports :

Bahrain International Airport

Bahrain, Bahrain

latitude: 26-16N, longitude: 050-39E, elevation: 2 m

Current weather observation

The report was made 31 minutes ago, at 21:00 UTC
Wind 5 kt from the South/Southeast
Temperature 28°C
Humidity 74%
Pressure 1014 hPa
Visibility 10 km or more
no clouds below 1500 m and no cumulonimbus

METAR: OBBI 282100Z 16005KT CAVOK 28/23 Q1014 NOSIG

Time: 00:31 (21:31 UTC)

Forecast

The report was made 4 hours and 31 minutes ago, at 17:00 UTC
Forecast valid from 28 at 18 UTC to 30 at 00 UTC
Wind 10 kt from the Southeast
Visibility 10 km or more
no clouds below 1500 m and no cumulonimbus

TAF: OBBI 281700Z 2818/3000 13010KT CAVOK

Weather observations and forecasts of more than 4000 airports (METAR and TAF reports).

The available stations are represented by yellow and red dots on the map.

Hover mouse over dot to see the name of the station.

Then click to see weather observations and forecasts.

To change the map : click on the green buttons with a black cross to zoom in, on the green button with a dash to zoom out, or on the green arrows for adjacent maps.


METAR-TAF: